DLH62R KSEA-PAKT
Flight info
| Callsign | DLH62R |
|---|---|
| Flight time | 0h 41m |
| Altitude | 36000 |
| Route | BANGR9 ARRIE TOU J523 YZT ANN |
| Aircraft | A320/M-SDE3FGHIRWY/LB1 |
Departure
| Time | 2026-05-06 08:57 |
|---|---|
| Airport | Seattle–Tacoma International Airport (KSEA) |
Arrival
| Time | 2026-05-06 09:38 |
|---|---|
| Airport | Ketchikan International Airport (PAKT) |
| Time | Latitude | Longitude | Altitude | Speed | Heading |
|---|---|---|---|---|---|
| 2026-05-06 08:46 | 47.44487 | -122.30471 | 400 ft | 0 kts | 130° |
| 2026-05-06 08:51 | 47.44472 | -122.30478 | 394 ft | 3 kts | 221° |
| 2026-05-06 08:52 | 47.44471 | -122.30498 | 394 ft | 1 kts | 261° |
| 2026-05-06 08:52 | 47.44470 | -122.30501 | 394 ft | 0 kts | 261° |
| 2026-05-06 08:52 | 47.44474 | -122.30518 | 394 ft | 6 kts | 300° |
| 2026-05-06 08:52 | 47.44521 | -122.30540 | 394 ft | 12 kts | 356° |
| 2026-05-06 08:53 | 47.44657 | -122.30546 | 394 ft | 21 kts | 359° |
| 2026-05-06 08:53 | 47.44792 | -122.30562 | 394 ft | 16 kts | 312° |
| 2026-05-06 08:53 | 47.44898 | -122.30627 | 394 ft | 19 kts | 359° |
| 2026-05-06 08:53 | 47.45071 | -122.30627 | 394 ft | 28 kts | 358° |
| 2026-05-06 08:54 | 47.45269 | -122.30630 | 392 ft | 29 kts | 0° |
| 2026-05-06 08:54 | 47.45476 | -122.30625 | 394 ft | 30 kts | 1° |
| 2026-05-06 08:54 | 47.45691 | -122.30620 | 394 ft | 31 kts | 0° |
| 2026-05-06 08:54 | 47.45912 | -122.30618 | 394 ft | 32 kts | 0° |
| 2026-05-06 08:55 | 47.46137 | -122.30616 | 394 ft | 33 kts | 0° |
| 2026-05-06 08:55 | 47.46273 | -122.30634 | 394 ft | 12 kts | 313° |
| 2026-05-06 08:55 | 47.46291 | -122.30761 | 394 ft | 8 kts | 261° |
| 2026-05-06 08:55 | 47.46265 | -122.30781 | 393 ft | 0 kts | 176° |
| 2026-05-06 08:56 | 47.46236 | -122.30779 | 394 ft | 26 kts | 178° |
| 2026-05-06 08:56 | 47.45783 | -122.30786 | 389 ft | 100 kts | 180° |
| 2026-05-06 08:56 | 47.44897 | -122.30794 | 397 ft | 152 kts | 180° |
| 2026-05-06 08:56 | 47.43800 | -122.30809 | 951 ft | 158 kts | 181° |
| 2026-05-06 08:57 | 47.42707 | -122.30811 | 1664 ft | 164 kts | 181° |
| 2026-05-06 08:57 | 47.41483 | -122.30834 | 2054 ft | 184 kts | 181° |
| 2026-05-06 08:57 | 47.40130 | -122.30862 | 2371 ft | 210 kts | 181° |
| 2026-05-06 08:57 | 47.38559 | -122.30905 | 2863 ft | 235 kts | 182° |
| 2026-05-06 08:58 | 47.36845 | -122.30966 | 3448 ft | 256 kts | 182° |
| 2026-05-06 08:58 | 47.35024 | -122.31038 | 4247 ft | 268 kts | 182° |
| 2026-05-06 08:58 | 47.33159 | -122.31488 | 5064 ft | 278 kts | 205° |
| 2026-05-06 08:58 | 47.31700 | -122.33277 | 5909 ft | 281 kts | 236° |
| 2026-05-06 08:59 | 47.30852 | -122.35868 | 6785 ft | 283 kts | 258° |
| 2026-05-06 08:59 | 47.30689 | -122.37526 | 7286 ft | 284 kts | 271° |
| 2026-05-06 08:59 | 47.30722 | -122.38491 | 7579 ft | 284 kts | 279° |
| 2026-05-06 08:59 | 47.31357 | -122.41220 | 8455 ft | 285 kts | 303° |
| 2026-05-06 09:00 | 47.32461 | -122.43660 | 9366 ft | 287 kts | 306° |
| 2026-05-06 09:00 | 47.33602 | -122.46102 | 10207 ft | 292 kts | 307° |
| 2026-05-06 09:00 | 47.34802 | -122.48659 | 10563 ft | 315 kts | 306° |
| 2026-05-06 09:00 | 47.36078 | -122.51383 | 11059 ft | 329 kts | 306° |
| 2026-05-06 09:01 | 47.37382 | -122.54188 | 11826 ft | 334 kts | 306° |
| 2026-05-06 09:01 | 47.38696 | -122.57031 | 12647 ft | 337 kts | 306° |
| 2026-05-06 09:01 | 47.40016 | -122.59901 | 13464 ft | 339 kts | 307° |
| 2026-05-06 09:01 | 47.41347 | -122.62798 | 14217 ft | 342 kts | 307° |
| 2026-05-06 09:02 | 47.42687 | -122.65720 | 14902 ft | 345 kts | 307° |
| 2026-05-06 09:02 | 47.44040 | -122.68671 | 15560 ft | 348 kts | 307° |
| 2026-05-06 09:02 | 47.45405 | -122.71652 | 16226 ft | 352 kts | 308° |
| 2026-05-06 09:02 | 47.46782 | -122.74666 | 16886 ft | 356 kts | 308° |
| 2026-05-06 09:03 | 47.48174 | -122.77710 | 17550 ft | 359 kts | 308° |
| 2026-05-06 09:03 | 47.49580 | -122.80783 | 18200 ft | 363 kts | 308° |
| 2026-05-06 09:03 | 47.50999 | -122.83888 | 18786 ft | 366 kts | 308° |
| 2026-05-06 09:03 | 47.52428 | -122.87018 | 19372 ft | 368 kts | 308° |
| 2026-05-06 09:04 | 47.53866 | -122.90168 | 19962 ft | 370 kts | 308° |
| 2026-05-06 09:04 | 47.56122 | -122.95121 | 20868 ft | 374 kts | 308° |
| 2026-05-06 09:04 | 47.61995 | -123.08081 | 23098 ft | 383 kts | 307° |
| 2026-05-06 09:04 | 47.68015 | -123.21412 | 24862 ft | 394 kts | 307° |
| 2026-05-06 09:05 | 47.74157 | -123.35097 | 26622 ft | 402 kts | 307° |
| 2026-05-06 09:05 | 47.80416 | -123.49069 | 28114 ft | 411 kts | 306° |
| 2026-05-06 09:05 | 47.86787 | -123.63436 | 29625 ft | 420 kts | 306° |
| 2026-05-06 09:05 | 47.93285 | -123.78123 | 30890 ft | 428 kts | 306° |
| 2026-05-06 09:06 | 47.99841 | -123.93042 | 32229 ft | 429 kts | 306° |
| 2026-05-06 09:06 | 48.06304 | -124.07839 | 33975 ft | 421 kts | 306° |
| 2026-05-06 09:06 | 48.12646 | -124.22437 | 35386 ft | 416 kts | 306° |
| 2026-05-06 09:06 | 48.18944 | -124.36958 | 36041 ft | 416 kts | 306° |
| 2026-05-06 09:07 | 48.25095 | -124.51235 | 36090 ft | 405 kts | 306° |
| 2026-05-06 09:07 | 48.31833 | -124.64717 | 36100 ft | 403 kts | 323° |
| 2026-05-06 09:07 | 48.40934 | -124.74494 | 36053 ft | 402 kts | 325° |
| 2026-05-06 09:08 | 48.59063 | -124.94325 | 36060 ft | 403 kts | 325° |
| 2026-05-06 09:08 | 48.77192 | -125.14289 | 36105 ft | 404 kts | 324° |
| 2026-05-06 09:09 | 48.95348 | -125.34459 | 36088 ft | 405 kts | 324° |
| 2026-05-06 09:09 | 49.13504 | -125.54815 | 36058 ft | 404 kts | 323° |
| 2026-05-06 09:10 | 49.31640 | -125.75318 | 36053 ft | 407 kts | 323° |
| 2026-05-06 09:10 | 49.49810 | -125.96095 | 36044 ft | 408 kts | 322° |
| 2026-05-06 09:11 | 49.67998 | -126.17038 | 36026 ft | 408 kts | 322° |
| 2026-05-06 09:11 | 49.86200 | -126.38223 | 36026 ft | 410 kts | 322° |
| 2026-05-06 09:12 | 50.04397 | -126.59618 | 36051 ft | 410 kts | 322° |
| 2026-05-06 09:12 | 50.22492 | -126.81079 | 36037 ft | 408 kts | 321° |
| 2026-05-06 09:13 | 50.40552 | -127.02726 | 36031 ft | 410 kts | 321° |
| 2026-05-06 09:13 | 50.58663 | -127.24638 | 36032 ft | 411 kts | 320° |
| 2026-05-06 09:14 | 50.77674 | -127.44497 | 36043 ft | 415 kts | 329° |
| 2026-05-06 09:14 | 50.97986 | -127.62079 | 36048 ft | 417 kts | 328° |
| 2026-05-06 09:15 | 51.18375 | -127.79907 | 36063 ft | 418 kts | 328° |
| 2026-05-06 09:15 | 51.38737 | -127.97856 | 36056 ft | 418 kts | 328° |
| 2026-05-06 09:16 | 51.59206 | -128.16112 | 36034 ft | 419 kts | 327° |
| 2026-05-06 09:16 | 51.79572 | -128.34460 | 36023 ft | 420 kts | 327° |
| 2026-05-06 09:17 | 51.98892 | -128.52080 | 36021 ft | 422 kts | 326° |
| 2026-05-06 09:17 | 52.17662 | -128.69312 | 36032 ft | 421 kts | 326° |
| 2026-05-06 09:18 | 52.37996 | -128.88208 | 36039 ft | 421 kts | 326° |
| 2026-05-06 09:18 | 52.58350 | -129.07331 | 36015 ft | 422 kts | 326° |
| 2026-05-06 09:19 | 52.78758 | -129.26681 | 36017 ft | 424 kts | 325° |
| 2026-05-06 09:19 | 52.99195 | -129.46269 | 36031 ft | 424 kts | 325° |
| 2026-05-06 09:20 | 53.19584 | -129.66045 | 36022 ft | 424 kts | 324° |
| 2026-05-06 09:20 | 53.40007 | -129.86087 | 36014 ft | 426 kts | 324° |
| 2026-05-06 09:21 | 53.60476 | -130.06420 | 36018 ft | 428 kts | 323° |
| 2026-05-06 09:21 | 53.81000 | -130.27005 | 36046 ft | 429 kts | 323° |
| 2026-05-06 09:21 | 53.91316 | -130.37446 | 35509 ft | 434 kts | 323° |
| 2026-05-06 09:22 | 54.01512 | -130.47802 | 34560 ft | 425 kts | 323° |
| 2026-05-06 09:22 | 54.11686 | -130.58228 | 32546 ft | 419 kts | 323° |
| 2026-05-06 09:22 | 54.21563 | -130.68418 | 30477 ft | 410 kts | 323° |
| 2026-05-06 09:22 | 54.31135 | -130.78306 | 28659 ft | 392 kts | 323° |
| 2026-05-06 09:23 | 54.40260 | -130.87815 | 26888 ft | 377 kts | 322° |
| 2026-05-06 09:23 | 54.46117 | -130.93943 | 25708 ft | 370 kts | 322° |
| 2026-05-06 09:23 | 54.54844 | -131.03125 | 23847 ft | 366 kts | 322° |
| 2026-05-06 09:23 | 54.63477 | -131.12226 | 21906 ft | 360 kts | 322° |
| 2026-05-06 09:24 | 54.71931 | -131.21190 | 20093 ft | 354 kts | 322° |
| 2026-05-06 09:24 | 54.80272 | -131.30101 | 18345 ft | 350 kts | 323° |
| 2026-05-06 09:24 | 54.88466 | -131.38865 | 16622 ft | 343 kts | 323° |
| 2026-05-06 09:24 | 54.91362 | -131.41978 | 16051 ft | 341 kts | 323° |
| 2026-05-06 09:25 | 54.93379 | -131.44149 | 15692 ft | 340 kts | 326° |
| 2026-05-06 09:25 | 54.95391 | -131.46320 | 15247 ft | 340 kts | 322° |
| 2026-05-06 09:25 | 54.97393 | -131.48481 | 14839 ft | 339 kts | 322° |
| 2026-05-06 09:25 | 54.99398 | -131.50641 | 14444 ft | 339 kts | 323° |
| 2026-05-06 09:26 | 55.01399 | -131.52801 | 14039 ft | 338 kts | 323° |
| 2026-05-06 09:26 | 55.03397 | -131.54963 | 13608 ft | 338 kts | 323° |
| 2026-05-06 09:26 | 55.05391 | -131.57124 | 13174 ft | 337 kts | 323° |
| 2026-05-06 09:26 | 55.07275 | -131.59496 | 12737 ft | 332 kts | 317° |
| 2026-05-06 09:27 | 55.09094 | -131.61973 | 12316 ft | 331 kts | 317° |
| 2026-05-06 09:27 | 55.10909 | -131.64441 | 11879 ft | 330 kts | 317° |
| 2026-05-06 09:27 | 55.12718 | -131.66904 | 11449 ft | 329 kts | 317° |
| 2026-05-06 09:27 | 55.14515 | -131.69357 | 11075 ft | 326 kts | 317° |
| 2026-05-06 09:28 | 55.16308 | -131.71808 | 10628 ft | 327 kts | 318° |
| 2026-05-06 09:28 | 55.18097 | -131.74252 | 10196 ft | 326 kts | 318° |
| 2026-05-06 09:28 | 55.19869 | -131.76677 | 9903 ft | 321 kts | 318° |
| 2026-05-06 09:28 | 55.21584 | -131.79022 | 9581 ft | 306 kts | 318° |
| 2026-05-06 09:29 | 55.23253 | -131.81304 | 9059 ft | 304 kts | 318° |
| 2026-05-06 09:29 | 55.24909 | -131.83570 | 8715 ft | 300 kts | 319° |
| 2026-05-06 09:29 | 55.26543 | -131.85810 | 8261 ft | 297 kts | 319° |
| 2026-05-06 09:29 | 55.28164 | -131.88039 | 7871 ft | 295 kts | 319° |
| 2026-05-06 09:30 | 55.29765 | -131.90246 | 7495 ft | 292 kts | 319° |
| 2026-05-06 09:30 | 55.31356 | -131.92436 | 7101 ft | 288 kts | 319° |
| 2026-05-06 09:30 | 55.32926 | -131.94600 | 6400 ft | 286 kts | 319° |
| 2026-05-06 09:30 | 55.34485 | -131.96760 | 5661 ft | 284 kts | 320° |
| 2026-05-06 09:31 | 55.35982 | -131.98835 | 5418 ft | 264 kts | 320° |
| 2026-05-06 09:31 | 55.37366 | -132.00747 | 5299 ft | 242 kts | 320° |
| 2026-05-06 09:31 | 55.38638 | -132.02509 | 5189 ft | 225 kts | 320° |
| 2026-05-06 09:31 | 55.39842 | -132.04181 | 5089 ft | 216 kts | 320° |
| 2026-05-06 09:32 | 55.41068 | -132.05642 | 4945 ft | 212 kts | 333° |
| 2026-05-06 09:32 | 55.42463 | -132.06444 | 4742 ft | 212 kts | 350° |
| 2026-05-06 09:32 | 55.43922 | -132.06509 | 4548 ft | 209 kts | 7° |
| 2026-05-06 09:32 | 55.45320 | -132.05861 | 4362 ft | 207 kts | 24° |
| 2026-05-06 09:33 | 55.46549 | -132.04568 | 4176 ft | 205 kts | 40° |
| 2026-05-06 09:33 | 55.47521 | -132.02746 | 3998 ft | 204 kts | 56° |
| 2026-05-06 09:33 | 55.48172 | -132.00553 | 3823 ft | 201 kts | 72° |
| 2026-05-06 09:33 | 55.48464 | -131.98155 | 3639 ft | 200 kts | 88° |
| 2026-05-06 09:34 | 55.48378 | -131.95729 | 3468 ft | 199 kts | 103° |
| 2026-05-06 09:34 | 55.47944 | -131.93466 | 3298 ft | 197 kts | 118° |
| 2026-05-06 09:34 | 55.47151 | -131.91514 | 3121 ft | 196 kts | 134° |
| 2026-05-06 09:34 | 55.46196 | -131.89771 | 2882 ft | 198 kts | 136° |
| 2026-05-06 09:35 | 55.45207 | -131.88047 | 2623 ft | 201 kts | 136° |
| 2026-05-06 09:35 | 55.44208 | -131.86314 | 2378 ft | 200 kts | 136° |
| 2026-05-06 09:35 | 55.43225 | -131.84613 | 2090 ft | 196 kts | 137° |
| 2026-05-06 09:35 | 55.42272 | -131.82964 | 1821 ft | 186 kts | 137° |
| 2026-05-06 09:36 | 55.41384 | -131.81428 | 1583 ft | 172 kts | 137° |
| 2026-05-06 09:36 | 55.40555 | -131.79996 | 1339 ft | 162 kts | 136° |
| 2026-05-06 09:36 | 55.39774 | -131.78647 | 1116 ft | 153 kts | 136° |
| 2026-05-06 09:36 | 55.39015 | -131.77337 | 932 ft | 152 kts | 136° |
| 2026-05-06 09:37 | 55.38257 | -131.76031 | 725 ft | 153 kts | 135° |
| 2026-05-06 09:37 | 55.37495 | -131.74724 | 486 ft | 154 kts | 135° |
| 2026-05-06 09:37 | 55.36733 | -131.73408 | 302 ft | 154 kts | 136° |
| 2026-05-06 09:37 | 55.35958 | -131.72091 | 108 ft | 154 kts | 135° |
| 2026-05-06 09:38 | 55.35313 | -131.70964 | 93 ft | 92 kts | 135° |
| 2026-05-06 09:38 | 55.34979 | -131.70393 | 96 ft | 59 kts | 136° |
| 2026-05-06 09:38 | 55.34851 | -131.70161 | 100 ft | 14 kts | 114° |
| 2026-05-06 09:38 | 55.34890 | -131.70052 | 100 ft | 9 kts | 32° |
| 2026-05-06 09:39 | 55.34959 | -131.70081 | 100 ft | 18 kts | 323° |
| 2026-05-06 09:39 | 55.35092 | -131.70296 | 96 ft | 31 kts | 317° |
| 2026-05-06 09:39 | 55.35276 | -131.70595 | 92 ft | 40 kts | 317° |
| 2026-05-06 09:39 | 55.35437 | -131.70874 | 91 ft | 29 kts | 316° |
| 2026-05-06 09:40 | 55.35559 | -131.71079 | 92 ft | 20 kts | 321° |
| 2026-05-06 09:40 | 55.35645 | -131.71052 | 85 ft | 10 kts | 43° |
| 2026-05-06 09:40 | 55.35654 | -131.71036 | 67 ft | 0 kts | 43° |